sensor_id;sensor_type;location;lat;lon;timestamp;P1;durP1;ratioP1;P2;durP2;ratioP2
39308;SDS011;26019;47.510;19.122;2023-08-21T00:02:24;18.42;;;13.93;;
39308;SDS011;26019;47.510;19.122;2023-08-21T00:12:29;18.95;;;14.07;;
39308;SDS011;26019;47.510;19.122;2023-08-21T00:22:31;17.00;;;13.70;;
39308;SDS011;26019;47.510;19.122;2023-08-21T00:32:32;13.75;;;12.20;;
39308;SDS011;26019;47.510;19.122;2023-08-21T00:42:36;13.90;;;12.30;;
39308;SDS011;26019;47.510;19.122;2023-08-21T01:02:47;16.90;;;13.45;;
39308;SDS011;26019;47.510;19.122;2023-08-21T01:12:56;17.27;;;13.40;;
39308;SDS011;26019;47.510;19.122;2023-08-21T01:23:05;18.70;;;13.77;;
39308;SDS011;26019;47.510;19.122;2023-08-21T01:33:10;15.45;;;13.18;;
39308;SDS011;26019;47.510;19.122;2023-08-21T01:43:19;15.20;;;13.60;;
39308;SDS011;26019;47.510;19.122;2023-08-21T01:53:21;18.48;;;13.80;;
39308;SDS011;26019;47.510;19.122;2023-08-21T02:03:26;19.42;;;14.30;;
39308;SDS011;26019;47.510;19.122;2023-08-21T02:13:28;16.17;;;14.35;;
39308;SDS011;26019;47.510;19.122;2023-08-21T02:23:31;16.35;;;13.63;;
39308;SDS011;26019;47.510;19.122;2023-08-21T02:33:33;18.90;;;13.63;;
39308;SDS011;26019;47.510;19.122;2023-08-21T02:43:36;14.77;;;13.27;;
39308;SDS011;26019;47.510;19.122;2023-08-21T02:53:39;16.98;;;13.52;;
39308;SDS011;26019;47.510;19.122;2023-08-21T03:03:41;16.08;;;13.80;;
39308;SDS011;26019;47.510;19.122;2023-08-21T03:13:44;22.92;;;16.63;;
39308;SDS011;26019;47.510;19.122;2023-08-21T03:23:46;17.88;;;15.00;;
39308;SDS011;26019;47.510;19.122;2023-08-21T03:33:49;16.83;;;14.73;;
39308;SDS011;26019;47.510;19.122;2023-08-21T03:43:50;24.48;;;16.67;;
39308;SDS011;26019;47.510;19.122;2023-08-21T03:53:52;20.63;;;15.45;;
39308;SDS011;26019;47.510;19.122;2023-08-21T04:03:54;20.95;;;15.80;;
39308;SDS011;26019;47.510;19.122;2023-08-21T04:13:57;17.35;;;15.52;;
39308;SDS011;26019;47.510;19.122;2023-08-21T04:24:00;16.15;;;14.45;;
39308;SDS011;26019;47.510;19.122;2023-08-21T04:34:02;17.17;;;15.32;;
39308;SDS011;26019;47.510;19.122;2023-08-21T04:44:05;18.80;;;15.07;;
39308;SDS011;26019;47.510;19.122;2023-08-21T04:54:10;17.33;;;13.57;;
39308;SDS011;26019;47.510;19.122;2023-08-21T05:04:13;15.32;;;13.10;;
39308;SDS011;26019;47.510;19.122;2023-08-21T05:14:15;16.25;;;12.45;;
39308;SDS011;26019;47.510;19.122;2023-08-21T05:24:18;15.77;;;13.52;;
39308;SDS011;26019;47.510;19.122;2023-08-21T05:34:20;17.40;;;12.95;;
39308;SDS011;26019;47.510;19.122;2023-08-21T05:44:21;22.13;;;11.43;;
39308;SDS011;26019;47.510;19.122;2023-08-21T05:54:24;15.82;;;12.07;;
39308;SDS011;26019;47.510;19.122;2023-08-21T06:04:26;14.80;;;11.15;;
39308;SDS011;26019;47.510;19.122;2023-08-21T06:14:29;13.52;;;9.90;;
39308;SDS011;26019;47.510;19.122;2023-08-21T06:24:31;11.85;;;9.20;;
39308;SDS011;26019;47.510;19.122;2023-08-21T06:34:33;12.98;;;10.20;;
39308;SDS011;26019;47.510;19.122;2023-08-21T06:44:35;14.35;;;9.88;;
39308;SDS011;26019;47.510;19.122;2023-08-21T06:54:37;11.25;;;9.70;;
39308;SDS011;26019;47.510;19.122;2023-08-21T07:04:39;17.83;;;10.38;;
39308;SDS011;26019;47.510;19.122;2023-08-21T07:14:40;10.68;;;9.60;;
39308;SDS011;26019;47.510;19.122;2023-08-21T07:24:42;13.48;;;9.00;;
39308;SDS011;26019;47.510;19.122;2023-08-21T07:34:46;11.23;;;9.90;;
39308;SDS011;26019;47.510;19.122;2023-08-21T07:54:53;13.43;;;9.70;;
39308;SDS011;26019;47.510;19.122;2023-08-21T08:04:56;12.75;;;9.35;;
39308;SDS011;26019;47.510;19.122;2023-08-21T08:14:57;14.80;;;8.75;;
39308;SDS011;26019;47.510;19.122;2023-08-21T08:25:00;10.68;;;9.55;;
39308;SDS011;26019;47.510;19.122;2023-08-21T08:35:03;10.25;;;9.18;;
39308;SDS011;26019;47.510;19.122;2023-08-21T08:45:06;9.23;;;8.32;;
39308;SDS011;26019;47.510;19.122;2023-08-21T08:55:08;11.38;;;8.80;;
39308;SDS011;26019;47.510;19.122;2023-08-21T09:05:10;10.15;;;9.07;;
39308;SDS011;26019;47.510;19.122;2023-08-21T09:15:14;10.27;;;8.80;;
39308;SDS011;26019;47.510;19.122;2023-08-21T09:25:15;9.02;;;8.07;;
39308;SDS011;26019;47.510;19.122;2023-08-21T09:35:19;11.00;;;9.60;;
39308;SDS011;26019;47.510;19.122;2023-08-21T09:45:25;11.15;;;7.70;;
39308;SDS011;26019;47.510;19.122;2023-08-21T09:55:27;9.40;;;8.40;;
39308;SDS011;26019;47.510;19.122;2023-08-21T10:05:34;7.57;;;6.93;;
39308;SDS011;26019;47.510;19.122;2023-08-21T10:15:39;7.07;;;6.32;;
39308;SDS011;26019;47.510;19.122;2023-08-21T10:25:43;7.40;;;6.70;;
39308;SDS011;26019;47.510;19.122;2023-08-21T10:35:45;7.10;;;6.50;;
39308;SDS011;26019;47.510;19.122;2023-08-21T10:45:54;10.65;;;6.78;;
39308;SDS011;26019;47.510;19.122;2023-08-21T10:55:59;10.60;;;9.50;;
39308;SDS011;26019;47.510;19.122;2023-08-21T11:06:06;6.50;;;5.90;;
39308;SDS011;26019;47.510;19.122;2023-08-21T11:16:09;8.07;;;6.53;;
39308;SDS011;26019;47.510;19.122;2023-08-21T11:26:12;7.82;;;6.35;;
39308;SDS011;26019;47.510;19.122;2023-08-21T11:36:21;15.77;;;13.65;;
39308;SDS011;26019;47.510;19.122;2023-08-21T11:46:23;8.53;;;5.50;;
39308;SDS011;26019;47.510;19.122;2023-08-21T11:56:27;6.93;;;6.20;;
39308;SDS011;26019;47.510;19.122;2023-08-21T12:06:30;7.60;;;6.30;;
39308;SDS011;26019;47.510;19.122;2023-08-21T12:16:34;7.70;;;5.90;;
39308;SDS011;26019;47.510;19.122;2023-08-21T12:26:35;8.30;;;6.05;;
39308;SDS011;26019;47.510;19.122;2023-08-21T12:36:50;6.90;;;5.72;;
39308;SDS011;26019;47.510;19.122;2023-08-21T12:46:52;5.93;;;5.38;;
39308;SDS011;26019;47.510;19.122;2023-08-21T12:56:54;5.82;;;5.25;;
39308;SDS011;26019;47.510;19.122;2023-08-21T13:06:59;5.53;;;4.95;;
39308;SDS011;26019;47.510;19.122;2023-08-21T13:17:02;5.05;;;4.55;;
39308;SDS011;26019;47.510;19.122;2023-08-21T13:27:05;6.25;;;4.22;;
39308;SDS011;26019;47.510;19.122;2023-08-21T13:37:06;4.05;;;3.75;;
39308;SDS011;26019;47.510;19.122;2023-08-21T13:47:08;4.40;;;4.00;;
39308;SDS011;26019;47.510;19.122;2023-08-21T13:57:11;7.68;;;4.30;;
39308;SDS011;26019;47.510;19.122;2023-08-21T14:07:13;3.90;;;3.60;;
39308;SDS011;26019;47.510;19.122;2023-08-21T14:17:15;4.22;;;3.70;;
39308;SDS011;26019;47.510;19.122;2023-08-21T14:27:17;4.30;;;3.60;;
39308;SDS011;26019;47.510;19.122;2023-08-21T14:37:19;3.17;;;2.97;;
39308;SDS011;26019;47.510;19.122;2023-08-21T14:47:22;3.78;;;3.45;;
39308;SDS011;26019;47.510;19.122;2023-08-21T14:57:26;4.68;;;3.25;;
39308;SDS011;26019;47.510;19.122;2023-08-21T15:07:30;4.20;;;3.83;;
39308;SDS011;26019;47.510;19.122;2023-08-21T15:17:31;5.25;;;3.60;;
39308;SDS011;26019;47.510;19.122;2023-08-21T15:27:33;4.18;;;3.83;;
39308;SDS011;26019;47.510;19.122;2023-08-21T15:37:35;7.57;;;4.78;;
39308;SDS011;26019;47.510;19.122;2023-08-21T15:47:38;7.53;;;4.90;;
39308;SDS011;26019;47.510;19.122;2023-08-21T15:57:43;3.80;;;3.50;;
39308;SDS011;26019;47.510;19.122;2023-08-21T16:07:52;3.85;;;3.55;;
39308;SDS011;26019;47.510;19.122;2023-08-21T16:17:55;5.35;;;4.07;;
39308;SDS011;26019;47.510;19.122;2023-08-21T16:27:57;5.43;;;3.83;;
39308;SDS011;26019;47.510;19.122;2023-08-21T16:48:02;4.60;;;4.20;;
39308;SDS011;26019;47.510;19.122;2023-08-21T16:58:04;9.48;;;4.57;;
39308;SDS011;26019;47.510;19.122;2023-08-21T17:08:07;6.30;;;5.20;;
39308;SDS011;26019;47.510;19.122;2023-08-21T17:18:11;7.15;;;5.53;;
39308;SDS011;26019;47.510;19.122;2023-08-21T17:28:13;9.32;;;6.15;;
39308;SDS011;26019;47.510;19.122;2023-08-21T17:38:17;27.73;;;21.05;;
39308;SDS011;26019;47.510;19.122;2023-08-21T17:48:20;10.32;;;7.45;;
39308;SDS011;26019;47.510;19.122;2023-08-21T17:58:24;10.48;;;7.45;;
39308;SDS011;26019;47.510;19.122;2023-08-21T18:08:27;9.27;;;8.25;;
39308;SDS011;26019;47.510;19.122;2023-08-21T18:18:29;21.27;;;15.38;;
39308;SDS011;26019;47.510;19.122;2023-08-21T18:28:32;10.23;;;7.00;;
39308;SDS011;26019;47.510;19.122;2023-08-21T18:38:35;9.13;;;7.15;;
39308;SDS011;26019;47.510;19.122;2023-08-21T18:48:37;9.07;;;7.43;;
39308;SDS011;26019;47.510;19.122;2023-08-21T18:58:41;8.20;;;6.47;;
39308;SDS011;26019;47.510;19.122;2023-08-21T19:08:44;11.40;;;8.15;;
39308;SDS011;26019;47.510;19.122;2023-08-21T19:18:47;11.82;;;8.45;;
39308;SDS011;26019;47.510;19.122;2023-08-21T19:28:49;14.13;;;8.48;;
39308;SDS011;26019;47.510;19.122;2023-08-21T19:38:55;19.67;;;11.57;;
39308;SDS011;26019;47.510;19.122;2023-08-21T19:48:58;12.45;;;9.48;;
39308;SDS011;26019;47.510;19.122;2023-08-21T19:59:01;16.50;;;9.27;;
39308;SDS011;26019;47.510;19.122;2023-08-21T20:09:04;16.40;;;9.48;;
39308;SDS011;26019;47.510;19.122;2023-08-21T20:19:08;15.35;;;10.13;;
39308;SDS011;26019;47.510;19.122;2023-08-21T20:29:10;18.85;;;12.10;;
39308;SDS011;26019;47.510;19.122;2023-08-21T20:39:14;17.88;;;11.88;;
39308;SDS011;26019;47.510;19.122;2023-08-21T20:49:17;14.27;;;11.40;;
39308;SDS011;26019;47.510;19.122;2023-08-21T20:59:19;13.52;;;10.55;;
39308;SDS011;26019;47.510;19.122;2023-08-21T21:09:23;14.63;;;10.98;;
39308;SDS011;26019;47.510;19.122;2023-08-21T21:19:27;18.80;;;12.10;;
39308;SDS011;26019;47.510;19.122;2023-08-21T21:29:29;17.42;;;11.55;;
39308;SDS011;26019;47.510;19.122;2023-08-21T21:39:31;15.93;;;11.15;;
39308;SDS011;26019;47.510;19.122;2023-08-21T21:49:33;18.33;;;13.27;;
39308;SDS011;26019;47.510;19.122;2023-08-21T21:59:35;15.18;;;11.60;;
39308;SDS011;26019;47.510;19.122;2023-08-21T22:09:37;13.57;;;11.20;;
39308;SDS011;26019;47.510;19.122;2023-08-21T22:19:41;19.52;;;12.90;;
39308;SDS011;26019;47.510;19.122;2023-08-21T22:29:43;13.98;;;12.18;;
39308;SDS011;26019;47.510;19.122;2023-08-21T22:39:45;15.00;;;12.18;;
39308;SDS011;26019;47.510;19.122;2023-08-21T22:49:47;16.23;;;12.25;;
39308;SDS011;26019;47.510;19.122;2023-08-21T22:59:50;16.50;;;12.60;;
39308;SDS011;26019;47.510;19.122;2023-08-21T23:09:51;16.42;;;12.50;;
39308;SDS011;26019;47.510;19.122;2023-08-21T23:19:53;17.25;;;13.23;;
39308;SDS011;26019;47.510;19.122;2023-08-21T23:29:55;15.32;;;12.35;;
39308;SDS011;26019;47.510;19.122;2023-08-21T23:39:57;14.73;;;13.20;;
39308;SDS011;26019;47.510;19.122;2023-08-21T23:50:02;17.90;;;13.90;;
